createdAt,value
2023-01-04T00:01:24.998Z,101297.97
2023-01-04T00:03:56.641Z,101300.63
2023-01-04T00:06:28.067Z,101288.03
2023-01-04T00:08:59.278Z,101296.13
2023-01-04T00:11:30.640Z,101287.94
2023-01-04T00:14:01.805Z,101294.25
2023-01-04T00:16:32.958Z,101286.13
2023-01-04T00:19:04.619Z,101302.28
2023-01-04T00:21:35.236Z,101285.88
2023-01-04T00:24:06.688Z,101287.03
2023-01-04T00:26:37.856Z,101290.03
2023-01-04T00:29:11.875Z,101289.22
2023-01-04T00:31:42.989Z,101298.50
2023-01-04T00:34:17.843Z,101304.22
2023-01-04T00:36:49.581Z,101299.59
2023-01-04T00:39:20.933Z,101310.25
2023-01-04T00:41:59.741Z,101297.72
2023-01-04T00:44:31.935Z,101292.00
2023-01-04T00:47:04.474Z,101294.75
2023-01-04T00:49:35.697Z,101296.09
2023-01-04T00:52:08.114Z,101306.19
2023-01-04T00:54:39.241Z,101289.81
2023-01-04T00:57:10.522Z,101299.94
2023-01-04T00:59:41.922Z,101301.81
2023-01-04T01:02:13.396Z,101289.56
2023-01-04T01:04:44.724Z,101300.69
2023-01-04T01:07:15.826Z,101293.47
2023-01-04T01:09:47.233Z,101282.28
2023-01-04T01:12:18.373Z,101300.56
2023-01-04T01:14:49.932Z,101282.50
2023-01-04T01:17:21.249Z,101279.72
2023-01-04T01:19:52.433Z,101273.16
2023-01-04T01:22:23.405Z,101263.22
2023-01-04T01:24:54.533Z,101264.63
2023-01-04T01:27:25.857Z,101264.72
2023-01-04T01:29:57.193Z,101271.53
2023-01-04T01:32:28.169Z,101274.78
2023-01-04T01:34:59.487Z,101263.88
2023-01-04T01:37:30.584Z,101256.47
2023-01-04T01:40:01.472Z,101260.88
2023-01-04T01:42:32.656Z,101261.41
2023-01-04T01:45:12.431Z,101265.81
2023-01-04T01:47:46.747Z,101261.09
2023-01-04T01:50:41.053Z,101249.47
2023-01-04T01:53:14.051Z,101254.78
2023-01-04T01:55:46.384Z,101250.59
2023-01-04T01:58:24.580Z,101252.81
2023-01-04T02:00:56.142Z,101254.94
2023-01-04T02:03:34.550Z,101259.88
2023-01-04T02:06:09.509Z,101240.94
2023-01-04T02:08:42.401Z,101254.41
2023-01-04T02:11:13.714Z,101248.13
2023-01-04T02:14:04.097Z,101251.22
2023-01-04T02:16:35.218Z,101230.44
2023-01-04T02:19:33.839Z,101224.69
2023-01-04T02:22:53.348Z,101217.88
2023-01-04T02:25:30.341Z,101240.16
2023-01-04T02:28:25.424Z,101223.94
2023-01-04T02:31:14.673Z,101233.78
2023-01-04T02:34:12.217Z,101239.50
2023-01-04T02:37:01.657Z,101225.44
2023-01-04T02:40:06.472Z,101208.69
2023-01-04T02:43:17.586Z,101203.06
2023-01-04T02:46:18.792Z,101224.78
2023-01-04T02:49:08.854Z,101230.16
2023-01-04T02:51:40.669Z,101217.31
2023-01-04T02:54:17.766Z,101217.09
2023-01-04T02:57:02.706Z,101211.72
2023-01-04T02:59:41.568Z,101212.59
2023-01-04T03:02:45.980Z,101230.50
2023-01-04T03:05:41.480Z,101206.53
2023-01-04T03:08:25.472Z,101203.81
2023-01-04T03:11:28.482Z,101195.66
2023-01-04T03:14:31.400Z,101196.78
2023-01-04T03:17:12.034Z,101191.81
2023-01-04T03:19:53.766Z,101187.63
2023-01-04T03:23:02.738Z,101189.91
2023-01-04T03:26:04.703Z,101175.91
2023-01-04T03:28:56.584Z,101193.50
2023-01-04T03:31:50.090Z,101196.44
2023-01-04T03:34:39.855Z,101189.16
2023-01-04T03:37:20.968Z,101195.88
2023-01-04T03:40:59.220Z,101190.63
2023-01-04T03:44:15.983Z,101190.91
2023-01-04T03:47:11.573Z,101185.97
2023-01-04T03:49:50.173Z,101188.56
2023-01-04T03:52:21.931Z,101177.31
2023-01-04T03:54:53.067Z,101183.38
2023-01-04T03:57:24.746Z,101176.84
2023-01-04T04:00:00.179Z,101176.53
2023-01-04T04:02:32.625Z,101182.63
2023-01-04T04:05:21.801Z,101187.44
2023-01-04T04:08:11.269Z,101182.28
2023-01-04T04:10:42.708Z,101178.31
2023-01-04T04:13:13.531Z,101175.53
2023-01-04T04:15:44.517Z,101181.19
2023-01-04T04:18:15.922Z,101166.41
2023-01-04T04:20:47.042Z,101176.78
2023-01-04T04:23:18.205Z,101166.84
2023-01-04T04:25:49.662Z,101166.56
2023-01-04T04:28:20.791Z,101164.81
2023-01-04T04:30:54.885Z,101163.50
2023-01-04T04:33:26.016Z,101163.34
2023-01-04T04:35:57.832Z,101170.19
2023-01-04T04:38:28.815Z,101155.97
2023-01-04T04:41:18.583Z,101152.75
2023-01-04T04:43:49.760Z,101150.91
2023-01-04T04:46:20.816Z,101163.78
2023-01-04T04:48:52.049Z,101150.84
2023-01-04T04:51:23.256Z,101159.81
2023-01-04T04:53:54.296Z,101138.53
2023-01-04T04:56:25.789Z,101153.88
2023-01-04T04:58:56.813Z,101154.69
2023-01-04T05:01:28.154Z,101139.75
2023-01-04T05:03:59.492Z,101137.53
2023-01-04T05:06:30.759Z,101145.03
2023-01-04T05:09:01.929Z,101140.91
2023-01-04T05:11:51.103Z,101140.31
2023-01-04T05:14:23.988Z,101138.31
2023-01-04T05:16:55.729Z,101147.09
2023-01-04T05:19:26.793Z,101132.75
2023-01-04T05:21:57.991Z,101148.72
2023-01-04T05:24:29.140Z,101147.44
2023-01-04T05:27:00.301Z,101155.94
2023-01-04T05:29:49.523Z,101140.38
2023-01-04T05:32:20.589Z,101141.97
2023-01-04T05:34:51.584Z,101136.50
2023-01-04T05:37:22.474Z,101134.13
2023-01-04T05:39:53.632Z,101131.16
2023-01-04T05:42:29.375Z,101149.19
2023-01-04T05:45:01.322Z,101137.00
2023-01-04T05:47:33.698Z,101156.84
2023-01-04T05:50:05.561Z,101155.34
2023-01-04T05:52:36.981Z,101154.25
2023-01-04T05:55:08.436Z,101130.16
2023-01-04T05:57:39.124Z,101127.09
2023-01-04T06:00:12.671Z,101118.47
2023-01-04T06:02:45.180Z,101131.22
2023-01-04T06:05:16.629Z,101125.56
2023-01-04T06:07:47.399Z,101135.91
2023-01-04T06:10:18.599Z,101141.41
2023-01-04T06:12:49.563Z,101153.97
2023-01-04T06:15:20.703Z,101153.34
2023-01-04T06:17:51.994Z,101163.50
2023-01-04T06:20:23.526Z,101173.63
2023-01-04T06:22:54.803Z,101181.81
2023-01-04T06:25:25.819Z,101170.38
2023-01-04T06:27:56.947Z,101175.31
2023-01-04T06:30:30.478Z,101171.81
2023-01-04T06:33:01.803Z,101204.88
2023-01-04T06:35:33.158Z,101176.78
2023-01-04T06:38:04.444Z,101185.88
2023-01-04T06:40:35.696Z,101177.09
2023-01-04T06:43:07.296Z,101185.50
2023-01-04T06:45:39.205Z,101176.72
2023-01-04T06:48:10.665Z,101182.16
2023-01-04T06:50:49.498Z,101195.25
2023-01-04T06:53:20.969Z,101196.09
2023-01-04T06:55:52.032Z,101194.44
2023-01-04T06:58:23.082Z,101183.78
2023-01-04T07:00:55.042Z,101176.47
2023-01-04T07:03:26.265Z,101199.88
2023-01-04T07:05:57.632Z,101197.44
2023-01-04T07:08:28.841Z,101201.84
2023-01-04T07:10:59.837Z,101204.25
2023-01-04T07:13:31.217Z,101189.25
2023-01-04T07:16:02.751Z,101201.75
2023-01-04T07:18:34.155Z,101193.84
2023-01-04T07:21:05.289Z,101204.50
2023-01-04T07:23:36.201Z,101185.72
2023-01-04T07:26:07.269Z,101203.97
2023-01-04T07:28:56.470Z,101185.97
2023-01-04T07:31:27.698Z,101179.22
2023-01-04T07:33:58.967Z,101189.81
2023-01-04T07:36:29.999Z,101195.81
2023-01-04T07:39:05.105Z,101190.88
2023-01-04T07:41:36.044Z,101186.78
2023-01-04T07:44:08.439Z,101178.88
2023-01-04T07:46:40.541Z,101193.31
2023-01-04T07:49:18.020Z,101190.84
2023-01-04T07:51:50.142Z,101195.25
2023-01-04T07:54:22.122Z,101184.34
2023-01-04T07:56:53.739Z,101181.63
2023-01-04T07:59:25.317Z,101181.09
2023-01-04T08:01:57.275Z,101196.38
2023-01-04T08:04:34.414Z,101187.09
2023-01-04T08:07:06.518Z,101169.94
2023-01-04T08:09:37.260Z,101193.09
2023-01-04T08:12:08.773Z,101183.88
2023-01-04T08:14:39.933Z,101178.97
2023-01-04T08:17:12.363Z,101191.72
2023-01-04T08:19:43.511Z,101195.81
2023-01-04T08:22:15.415Z,101197.41
2023-01-04T08:24:46.562Z,101199.59
2023-01-04T08:27:17.676Z,101213.25
2023-01-04T08:29:49.299Z,101214.38
2023-01-04T08:32:20.475Z,101220.63
2023-01-04T08:34:51.882Z,101219.00
2023-01-04T08:37:23.041Z,101221.47
2023-01-04T08:39:55.458Z,101219.84
2023-01-04T08:42:31.254Z,101226.09
2023-01-04T08:45:03.614Z,101230.75
2023-01-04T08:47:35.665Z,101233.75
2023-01-04T08:50:10.688Z,101235.69
2023-01-04T08:52:43.525Z,101231.56
2023-01-04T08:55:17.761Z,101244.94
2023-01-04T08:57:51.263Z,101256.19
2023-01-04T09:00:23.289Z,101249.09
2023-01-04T09:02:55.061Z,101254.31
2023-01-04T09:05:27.457Z,101269.00
2023-01-04T09:07:58.837Z,101264.09
2023-01-04T09:10:29.995Z,101242.59
2023-01-04T09:13:01.140Z,101256.47
2023-01-04T09:15:33.099Z,101254.84
2023-01-04T09:18:31.951Z,101253.47
2023-01-04T09:20:55.588Z,101253.75
2023-01-04T09:23:27.059Z,101256.19
2023-01-04T09:25:58.160Z,101245.81
2023-01-04T09:28:29.631Z,101249.97
2023-01-04T09:31:00.738Z,101256.22
2023-01-04T09:33:55.745Z,101254.88
2023-01-04T09:36:23.167Z,101252.38
2023-01-04T09:38:54.583Z,101246.66
2023-01-04T09:41:31.644Z,101240.38
2023-01-04T09:44:12.886Z,101242.84
2023-01-04T09:47:10.592Z,101246.41
2023-01-04T09:49:53.849Z,101246.16
2023-01-04T09:52:50.467Z,101239.94
2023-01-04T09:55:51.776Z,101239.66
2023-01-04T09:58:37.880Z,101248.63
2023-01-04T10:01:49.913Z,101242.34
2023-01-04T10:04:28.521Z,101243.97
2023-01-04T10:07:04.893Z,101231.72
2023-01-04T10:09:36.477Z,101247.50
2023-01-04T10:12:44.048Z,101253.22
2023-01-04T10:15:32.445Z,101248.56
2023-01-04T10:21:32.010Z,101233.53
2023-01-04T10:24:10.169Z,101235.66
2023-01-04T10:26:52.789Z,101225.38
2023-01-04T10:29:44.968Z,101243.31
2023-01-04T10:32:31.980Z,101219.09
2023-01-04T10:35:03.079Z,101238.69
2023-01-04T10:37:39.298Z,101219.59
2023-01-04T10:40:16.626Z,101224.22
2023-01-04T10:43:14.057Z,101219.84
2023-01-04T10:46:00.466Z,101229.91
2023-01-04T10:48:51.489Z,101217.94
2023-01-04T10:51:37.043Z,101224.47
2023-01-04T10:54:23.223Z,101220.94
2023-01-04T10:57:02.369Z,101206.47
2023-01-04T10:59:36.662Z,101220.66
2023-01-04T11:02:29.169Z,101204.59
2023-01-04T11:05:22.332Z,101204.59
2023-01-04T11:08:01.073Z,101207.88
2023-01-04T11:10:43.004Z,101213.09
2023-01-04T11:13:14.489Z,101216.88
2023-01-04T11:15:46.867Z,101218.25
2023-01-04T11:18:19.072Z,101210.31
2023-01-04T11:20:50.215Z,101212.22
2023-01-04T11:23:23.068Z,101203.75
2023-01-04T11:26:00.465Z,101192.59
2023-01-04T11:28:49.900Z,101197.50
2023-01-04T11:32:14.364Z,101184.44
2023-01-04T11:34:50.244Z,101189.03
2023-01-04T11:37:29.814Z,101194.19
2023-01-04T11:40:18.805Z,101213.88
2023-01-04T11:43:13.076Z,101207.84
2023-01-04T11:46:07.891Z,101202.13
2023-01-04T11:48:46.057Z,101205.97
2023-01-04T11:51:31.893Z,101202.69
2023-01-04T11:54:04.137Z,101202.16
2023-01-04T11:56:37.662Z,101208.97
2023-01-04T11:59:11.581Z,101195.63
2023-01-04T12:01:51.089Z,101188.25
2023-01-04T12:04:29.091Z,101193.69
2023-01-04T12:07:35.947Z,101190.97
2023-01-04T12:10:25.216Z,101189.91
2023-01-04T12:13:01.884Z,101198.91
2023-01-04T12:16:07.853Z,101197.03
2023-01-04T12:18:46.739Z,101193.22
2023-01-04T12:21:24.206Z,101187.00
2023-01-04T12:23:56.525Z,101194.63
2023-01-04T12:26:27.896Z,101185.06
2023-01-04T12:29:24.538Z,101184.81
2023-01-04T12:32:09.099Z,101174.22
2023-01-04T12:34:42.630Z,101176.38
2023-01-04T12:37:34.560Z,101167.94
2023-01-04T12:40:26.116Z,101155.94
2023-01-04T12:43:18.405Z,101155.94
2023-01-04T12:46:10.108Z,101146.91
2023-01-04T12:49:00.635Z,101143.91
2023-01-04T12:51:33.177Z,101138.22
2023-01-04T12:54:07.240Z,101154.81
2023-01-04T12:57:15.028Z,101154.22
2023-01-04T13:00:07.984Z,101156.16
2023-01-04T13:02:49.420Z,101159.41
2023-01-04T13:05:55.549Z,101152.06
2023-01-04T13:08:16.579Z,101153.41
2023-01-04T13:10:53.075Z,101151.50
2023-01-04T13:13:47.007Z,101160.28
2023-01-04T13:16:47.134Z,101163.56
2023-01-04T13:19:27.937Z,101162.25
2023-01-04T13:21:59.112Z,101170.78
2023-01-04T13:24:33.686Z,101161.31
2023-01-04T13:27:09.744Z,101165.97
2023-01-04T13:29:43.213Z,101168.97
2023-01-04T13:32:19.467Z,101179.06
2023-01-04T13:35:15.289Z,101162.41
2023-01-04T13:37:48.602Z,101171.16
2023-01-04T13:40:39.932Z,101165.72
2023-01-04T13:43:37.841Z,101162.69
2023-01-04T13:46:38.070Z,101152.91
2023-01-04T13:49:19.149Z,101149.91
2023-01-04T13:52:06.362Z,101154.78
2023-01-04T13:54:44.131Z,101155.88
2023-01-04T13:57:22.016Z,101165.97
2023-01-04T13:59:53.540Z,101156.19
2023-01-04T14:02:24.451Z,101158.63
2023-01-04T14:04:55.846Z,101152.63
2023-01-04T14:07:27.329Z,101141.47
2023-01-04T14:10:00.883Z,101152.91
2023-01-04T14:12:32.885Z,101137.38
2023-01-04T14:15:15.680Z,101150.72
2023-01-04T14:17:53.609Z,101152.09
2023-01-04T14:20:24.799Z,101148.81
2023-01-04T14:23:00.107Z,101146.09
2023-01-04T14:25:45.090Z,101148.28
2023-01-04T14:28:33.860Z,101150.47
2023-01-04T14:31:08.302Z,101155.63
2023-01-04T14:33:50.085Z,101137.38
2023-01-04T14:36:31.484Z,101140.38
2023-01-04T14:39:09.032Z,101144.47
2023-01-04T14:41:43.400Z,101128.94
2023-01-04T14:44:23.138Z,101120.25
2023-01-04T14:46:59.651Z,101115.34
2023-01-04T14:49:32.972Z,101112.38
2023-01-04T14:52:05.810Z,101120.53
2023-01-04T14:54:40.459Z,101115.34
2023-01-04T14:57:12.755Z,101119.69
2023-01-04T14:59:46.436Z,101105.56
2023-01-04T15:02:17.893Z,101106.91
2023-01-04T15:04:49.389Z,101126.75
2023-01-04T15:07:50.100Z,101116.19
2023-01-04T15:10:31.581Z,101119.44
2023-01-04T15:13:02.781Z,101103.63
2023-01-04T15:15:37.546Z,101111.53
2023-01-04T15:18:09.157Z,101104.19
2023-01-04T15:20:43.590Z,101109.06
2023-01-04T15:23:15.709Z,101110.19
2023-01-04T15:25:47.082Z,101116.72
2023-01-04T15:28:18.104Z,101117.50
2023-01-04T15:30:49.055Z,101112.91
2023-01-04T15:33:20.454Z,101103.09
2023-01-04T15:36:03.716Z,101096.56
2023-01-04T15:38:35.423Z,101103.91
2023-01-04T15:41:08.302Z,101098.19
2023-01-04T15:43:40.259Z,101097.41
2023-01-04T15:46:11.512Z,101100.91
2023-01-04T15:48:42.778Z,101106.34
2023-01-04T15:51:13.844Z,101107.44
2023-01-04T15:53:45.239Z,101109.34
2023-01-04T15:56:16.590Z,101102.81
2023-01-04T15:58:47.593Z,101099.81
2023-01-04T16:01:19.019Z,101103.91
2023-01-04T16:03:53.449Z,101099.56
2023-01-04T16:06:26.476Z,101102.81
2023-01-04T16:09:00.253Z,101101.75
2023-01-04T16:11:31.894Z,101094.38
2023-01-04T16:14:04.547Z,101101.44
2023-01-04T16:16:36.083Z,101106.34
2023-01-04T16:19:08.437Z,101103.06
2023-01-04T16:21:39.297Z,101106.63
2023-01-04T16:24:37.000Z,101110.97
2023-01-04T16:27:03.609Z,101120.50
2023-01-04T16:29:34.899Z,101101.44
2023-01-04T16:32:06.478Z,101117.78
2023-01-04T16:34:38.476Z,101122.94
2023-01-04T16:37:08.965Z,101110.97
2023-01-04T16:42:31.547Z,101106.34
2023-01-04T16:45:02.703Z,101103.91
2023-01-04T16:47:42.464Z,101114.81
2023-01-04T16:50:14.289Z,101112.63
2023-01-04T16:52:46.165Z,101114.25
2023-01-04T16:55:23.585Z,101118.59
2023-01-04T16:57:55.003Z,101112.34
2023-01-04T17:00:26.076Z,101113.44
2023-01-04T17:02:57.514Z,101119.69
2023-01-04T17:05:28.684Z,101118.34
2023-01-04T17:07:59.809Z,101119.41
2023-01-04T17:10:31.138Z,101122.13
2023-01-04T17:13:03.037Z,101130.28
2023-01-04T17:15:49.166Z,101130.84
2023-01-04T17:18:23.928Z,101126.50
2023-01-04T17:21:06.247Z,101130.84
2023-01-04T17:23:50.197Z,101122.13
2023-01-04T17:26:27.741Z,101134.91
2023-01-04T17:29:00.536Z,101141.72
2023-01-04T17:31:34.365Z,101135.75
2023-01-04T17:34:06.058Z,101135.19
2023-01-04T17:36:37.381Z,101139.84
2023-01-04T17:39:08.796Z,101144.44
2023-01-04T17:41:40.151Z,101136.00
2023-01-04T17:44:12.431Z,101131.09
2023-01-04T17:46:44.664Z,101146.59
2023-01-04T17:49:22.819Z,101162.16
2023-01-04T17:51:55.953Z,101151.25
2023-01-04T17:54:28.337Z,101147.69
2023-01-04T17:56:58.866Z,101156.69
2023-01-04T17:59:29.987Z,101159.13
2023-01-04T18:02:01.547Z,101159.13
2023-01-04T18:04:32.815Z,101150.69
2023-01-04T18:07:04.190Z,101150.41
2023-01-04T18:09:35.637Z,101144.97
2023-01-04T18:12:06.865Z,101160.22
2023-01-04T18:14:38.122Z,101164.56
2023-01-04T18:17:09.139Z,101161.56
2023-01-04T18:19:44.545Z,101172.22
2023-01-04T18:22:17.538Z,101159.97
2023-01-04T18:24:48.493Z,101161.63
2023-01-04T18:27:22.623Z,101159.69
2023-01-04T18:29:56.873Z,101167.06
2023-01-04T18:32:28.959Z,101164.59
2023-01-04T18:35:05.782Z,101164.88
2023-01-04T18:37:39.945Z,101157.53
2023-01-04T18:40:11.699Z,101146.38
2023-01-04T18:42:42.168Z,101151.25
2023-01-04T18:45:13.554Z,101155.59
2023-01-04T18:47:48.984Z,101159.69
2023-01-04T18:50:20.590Z,101154.75
2023-01-04T18:52:51.964Z,101139.19
2023-01-04T18:55:23.528Z,101149.28
2023-01-04T18:57:54.825Z,101157.97
2023-01-04T19:00:31.179Z,101166.09
2023-01-04T19:03:02.768Z,101178.63
2023-01-04T19:05:34.421Z,101170.97
2023-01-04T19:08:06.056Z,101187.03
2023-01-04T19:10:37.250Z,101170.66
2023-01-04T19:13:08.118Z,101155.09
2023-01-04T19:15:42.769Z,101149.22
2023-01-04T19:18:18.551Z,101148.72
2023-01-04T19:20:49.522Z,101155.03
2023-01-04T19:23:20.845Z,101171.63
2023-01-04T19:25:52.029Z,101166.69
2023-01-04T19:28:23.224Z,101168.06
2023-01-04T19:30:54.225Z,101168.91
2023-01-04T19:33:26.260Z,101183.63
2023-01-04T19:35:57.688Z,101173.59
2023-01-04T19:38:28.825Z,101182.25
2023-01-04T19:41:01.817Z,101182.84
2023-01-04T19:43:33.052Z,101172.25
2023-01-04T19:46:06.408Z,101187.44
2023-01-04T19:48:37.605Z,101192.84
2023-01-04T19:51:18.522Z,101186.06
2023-01-04T19:53:49.908Z,101188.13
2023-01-04T19:56:20.814Z,101200.41
2023-01-04T19:58:52.919Z,101205.09
2023-01-04T20:01:23.737Z,101212.16
2023-01-04T20:03:54.761Z,101217.38
2023-01-04T20:06:26.173Z,101208.13
2023-01-04T20:08:57.387Z,101204.59
2023-01-04T20:11:28.805Z,101209.69
2023-01-04T20:14:00.048Z,101198.50
2023-01-04T20:16:31.479Z,101207.78
2023-01-04T20:19:02.685Z,101207.97
2023-01-04T20:21:33.798Z,101202.50
2023-01-04T20:24:05.208Z,101212.81
2023-01-04T20:26:36.389Z,101231.09
2023-01-04T20:29:08.078Z,101220.53
2023-01-04T20:31:45.272Z,101235.47
2023-01-04T20:34:16.892Z,101221.78
2023-01-04T20:36:48.268Z,101238.66
2023-01-04T20:39:19.475Z,101239.22
2023-01-04T20:42:08.795Z,101228.38
2023-01-04T20:44:40.135Z,101215.81
2023-01-04T20:47:11.179Z,101220.16
2023-01-04T20:49:42.055Z,101228.59
2023-01-04T20:52:13.033Z,101219.03
2023-01-04T20:54:44.820Z,101220.19
2023-01-04T20:57:17.154Z,101230.56
2023-01-04T20:59:48.517Z,101229.75
2023-01-04T21:02:19.715Z,101228.09
2023-01-04T21:04:50.799Z,101227.25
2023-01-04T21:07:22.002Z,101220.66
2023-01-04T21:09:52.923Z,101211.59
2023-01-04T21:12:24.349Z,101211.81
2023-01-04T21:14:55.524Z,101212.84
2023-01-04T21:17:26.394Z,101207.34
2023-01-04T21:19:57.294Z,101218.88
2023-01-04T21:22:28.645Z,101215.47
2023-01-04T21:24:59.789Z,101202.72
2023-01-04T21:27:32.995Z,101217.81
2023-01-04T21:30:04.738Z,101232.28
2023-01-04T21:32:35.591Z,101225.66
2023-01-04T21:35:06.912Z,101211.78
2023-01-04T21:37:37.865Z,101217.47
2023-01-04T21:40:09.405Z,101215.22
2023-01-04T21:42:42.096Z,101216.88
2023-01-04T21:45:13.633Z,101211.97
2023-01-04T21:47:44.290Z,101207.19
2023-01-04T21:50:17.151Z,101234.78
2023-01-04T21:52:49.222Z,101223.72
2023-01-04T21:55:20.279Z,101220.63
2023-01-04T21:57:52.163Z,101228.69
2023-01-04T22:00:23.903Z,101220.47
2023-01-04T22:02:55.432Z,101221.31
2023-01-04T22:05:26.991Z,101218.38
2023-01-04T22:07:58.142Z,101228.66
2023-01-04T22:10:29.096Z,101228.59
2023-01-04T22:13:00.403Z,101236.63
2023-01-04T22:15:31.520Z,101223.78
2023-01-04T22:18:02.880Z,101223.78
2023-01-04T22:20:34.188Z,101222.09
2023-01-04T22:23:05.628Z,101214.69
2023-01-04T22:25:37.146Z,101201.75
2023-01-04T22:28:08.469Z,101211.13
2023-01-04T22:30:43.547Z,101209.66
2023-01-04T22:33:14.913Z,101224.31
2023-01-04T22:35:45.861Z,101220.03
2023-01-04T22:38:17.018Z,101214.22
2023-01-04T22:40:48.278Z,101220.16
2023-01-04T22:43:19.688Z,101213.72
2023-01-04T22:45:50.818Z,101212.59
2023-01-04T22:48:21.791Z,101222.47
2023-01-04T22:50:52.622Z,101228.53
2023-01-04T22:53:23.746Z,101222.28
2023-01-04T22:58:52.043Z,101215.63
2023-01-04T23:01:26.292Z,101215.84
2023-01-04T23:03:58.680Z,101212.78
2023-01-04T23:06:31.758Z,101205.97
2023-01-04T23:09:09.343Z,101211.84
2023-01-04T23:11:40.924Z,101215.09
2023-01-04T23:14:15.307Z,101212.31
2023-01-04T23:16:49.734Z,101206.72
2023-01-04T23:19:20.864Z,101211.22
2023-01-04T23:21:52.618Z,101213.84
2023-01-04T23:24:23.735Z,101211.34
2023-01-04T23:26:54.839Z,101218.28
2023-01-04T23:29:29.352Z,101224.13
2023-01-04T23:32:00.966Z,101216.06
2023-01-04T23:34:32.328Z,101226.25
2023-01-04T23:37:03.547Z,101231.28
2023-01-04T23:39:35.032Z,101229.78
2023-01-04T23:42:06.440Z,101220.09
2023-01-04T23:44:37.543Z,101233.94
2023-01-04T23:47:09.745Z,101222.41
2023-01-04T23:49:41.813Z,101218.75
2023-01-04T23:52:13.741Z,101213.97
2023-01-04T23:54:44.679Z,101226.00
2023-01-04T23:57:15.597Z,101203.88
2023-01-04T23:59:47.179Z,101211.00
